sensor_id;sensor_type;location;lat;lon;timestamp;P1;durP1;ratioP1;P2;durP2;ratioP2
75016;SDS011;63577;39.766;2.720;2023-11-19T00:02:20;4.60;;;1.70;;
75016;SDS011;63577;39.766;2.720;2023-11-19T00:04:46;3.50;;;1.50;;
75016;SDS011;63577;39.766;2.720;2023-11-19T00:07:12;4.10;;;1.60;;
75016;SDS011;63577;39.766;2.720;2023-11-19T00:09:39;5.60;;;1.90;;
75016;SDS011;63577;39.766;2.720;2023-11-19T00:12:05;4.70;;;1.80;;
75016;SDS011;63577;39.766;2.720;2023-11-19T00:14:30;3.60;;;1.60;;
75016;SDS011;63577;39.766;2.720;2023-11-19T00:16:56;4.10;;;1.70;;
75016;SDS011;63577;39.766;2.720;2023-11-19T00:19:21;6.00;;;2.20;;
75016;SDS011;63577;39.766;2.720;2023-11-19T00:21:46;5.30;;;2.40;;
75016;SDS011;63577;39.766;2.720;2023-11-19T00:24:12;4.80;;;2.20;;
75016;SDS011;63577;39.766;2.720;2023-11-19T00:26:38;5.20;;;2.60;;
75016;SDS011;63577;39.766;2.720;2023-11-19T00:29:03;6.30;;;3.10;;
75016;SDS011;63577;39.766;2.720;2023-11-19T00:31:29;4.80;;;2.80;;
75016;SDS011;63577;39.766;2.720;2023-11-19T00:33:54;5.30;;;2.60;;
75016;SDS011;63577;39.766;2.720;2023-11-19T00:36:20;6.00;;;3.10;;
75016;SDS011;63577;39.766;2.720;2023-11-19T00:38:45;6.10;;;3.60;;
75016;SDS011;63577;39.766;2.720;2023-11-19T00:41:11;5.90;;;2.70;;
75016;SDS011;63577;39.766;2.720;2023-11-19T00:43:37;5.70;;;2.90;;
75016;SDS011;63577;39.766;2.720;2023-11-19T00:46:03;5.40;;;2.50;;
75016;SDS011;63577;39.766;2.720;2023-11-19T00:48:28;4.70;;;1.80;;
75016;SDS011;63577;39.766;2.720;2023-11-19T00:50:53;4.80;;;1.90;;
75016;SDS011;63577;39.766;2.720;2023-11-19T00:53:19;4.10;;;1.70;;
75016;SDS011;63577;39.766;2.720;2023-11-19T00:55:44;3.90;;;1.70;;
75016;SDS011;63577;39.766;2.720;2023-11-19T00:58:09;3.50;;;1.20;;
75016;SDS011;63577;39.766;2.720;2023-11-19T01:00:35;4.60;;;1.60;;
75016;SDS011;63577;39.766;2.720;2023-11-19T01:03:00;4.90;;;2.20;;
75016;SDS011;63577;39.766;2.720;2023-11-19T01:05:25;4.80;;;2.60;;
75016;SDS011;63577;39.766;2.720;2023-11-19T01:07:51;4.30;;;1.70;;
75016;SDS011;63577;39.766;2.720;2023-11-19T01:10:18;4.60;;;1.70;;
75016;SDS011;63577;39.766;2.720;2023-11-19T01:12:44;5.20;;;1.90;;
75016;SDS011;63577;39.766;2.720;2023-11-19T01:15:09;6.10;;;2.50;;
75016;SDS011;63577;39.766;2.720;2023-11-19T01:17:36;5.10;;;1.90;;
75016;SDS011;63577;39.766;2.720;2023-11-19T01:20:02;5.30;;;2.00;;
75016;SDS011;63577;39.766;2.720;2023-11-19T01:22:31;4.80;;;2.30;;
75016;SDS011;63577;39.766;2.720;2023-11-19T01:24:56;5.00;;;2.20;;
75016;SDS011;63577;39.766;2.720;2023-11-19T01:27:23;4.50;;;2.00;;
75016;SDS011;63577;39.766;2.720;2023-11-19T01:29:48;5.00;;;1.90;;
75016;SDS011;63577;39.766;2.720;2023-11-19T01:32:14;5.00;;;1.90;;
75016;SDS011;63577;39.766;2.720;2023-11-19T01:34:40;5.20;;;2.30;;
75016;SDS011;63577;39.766;2.720;2023-11-19T01:37:06;4.30;;;1.60;;
75016;SDS011;63577;39.766;2.720;2023-11-19T01:39:31;4.20;;;2.00;;
75016;SDS011;63577;39.766;2.720;2023-11-19T01:41:56;4.90;;;2.20;;
75016;SDS011;63577;39.766;2.720;2023-11-19T01:44:22;5.10;;;2.50;;
75016;SDS011;63577;39.766;2.720;2023-11-19T01:46:47;4.40;;;2.20;;
75016;SDS011;63577;39.766;2.720;2023-11-19T01:49:17;4.10;;;2.20;;
75016;SDS011;63577;39.766;2.720;2023-11-19T01:51:43;4.60;;;2.30;;
75016;SDS011;63577;39.766;2.720;2023-11-19T01:54:08;5.00;;;2.40;;
75016;SDS011;63577;39.766;2.720;2023-11-19T01:56:34;4.10;;;2.10;;
75016;SDS011;63577;39.766;2.720;2023-11-19T01:59:00;4.70;;;1.90;;
75016;SDS011;63577;39.766;2.720;2023-11-19T02:01:25;3.60;;;2.00;;
75016;SDS011;63577;39.766;2.720;2023-11-19T02:03:51;4.60;;;1.80;;
75016;SDS011;63577;39.766;2.720;2023-11-19T02:06:17;4.50;;;2.00;;
75016;SDS011;63577;39.766;2.720;2023-11-19T02:08:42;4.80;;;1.90;;
75016;SDS011;63577;39.766;2.720;2023-11-19T02:11:08;6.10;;;2.40;;
75016;SDS011;63577;39.766;2.720;2023-11-19T02:13:34;6.40;;;2.80;;
75016;SDS011;63577;39.766;2.720;2023-11-19T02:16:01;6.90;;;3.50;;
75016;SDS011;63577;39.766;2.720;2023-11-19T02:18:27;6.10;;;3.20;;
75016;SDS011;63577;39.766;2.720;2023-11-19T02:20:53;7.20;;;3.60;;
75016;SDS011;63577;39.766;2.720;2023-11-19T02:23:19;6.90;;;3.30;;
75016;SDS011;63577;39.766;2.720;2023-11-19T02:28:23;4.10;;;1.90;;
75016;SDS011;63577;39.766;2.720;2023-11-19T02:30:48;4.00;;;1.80;;
75016;SDS011;63577;39.766;2.720;2023-11-19T02:33:13;5.90;;;2.30;;
75016;SDS011;63577;39.766;2.720;2023-11-19T02:35:40;5.20;;;2.30;;
75016;SDS011;63577;39.766;2.720;2023-11-19T02:38:06;5.80;;;2.50;;
75016;SDS011;63577;39.766;2.720;2023-11-19T02:40:32;5.40;;;2.50;;
75016;SDS011;63577;39.766;2.720;2023-11-19T02:42:58;5.70;;;1.80;;
75016;SDS011;63577;39.766;2.720;2023-11-19T02:45:23;4.90;;;1.90;;
75016;SDS011;63577;39.766;2.720;2023-11-19T02:47:50;3.70;;;1.70;;
75016;SDS011;63577;39.766;2.720;2023-11-19T02:50:16;5.90;;;1.70;;
75016;SDS011;63577;39.766;2.720;2023-11-19T02:52:42;4.10;;;1.70;;
75016;SDS011;63577;39.766;2.720;2023-11-19T02:55:08;5.70;;;2.20;;
75016;SDS011;63577;39.766;2.720;2023-11-19T03:00:03;5.60;;;2.20;;
75016;SDS011;63577;39.766;2.720;2023-11-19T03:02:38;4.90;;;2.30;;
75016;SDS011;63577;39.766;2.720;2023-11-19T03:05:09;5.60;;;2.30;;
75016;SDS011;63577;39.766;2.720;2023-11-19T03:07:35;5.00;;;2.20;;
75016;SDS011;63577;39.766;2.720;2023-11-19T03:10:01;5.80;;;2.20;;
75016;SDS011;63577;39.766;2.720;2023-11-19T03:12:26;5.50;;;2.50;;
75016;SDS011;63577;39.766;2.720;2023-11-19T03:14:52;5.50;;;2.60;;
75016;SDS011;63577;39.766;2.720;2023-11-19T03:17:17;6.50;;;3.20;;
75016;SDS011;63577;39.766;2.720;2023-11-19T03:19:43;6.90;;;2.80;;
75016;SDS011;63577;39.766;2.720;2023-11-19T03:22:09;5.20;;;2.20;;
75016;SDS011;63577;39.766;2.720;2023-11-19T03:24:36;5.60;;;2.70;;
75016;SDS011;63577;39.766;2.720;2023-11-19T03:27:01;5.80;;;2.20;;
75016;SDS011;63577;39.766;2.720;2023-11-19T03:29:26;5.00;;;2.40;;
75016;SDS011;63577;39.766;2.720;2023-11-19T03:31:53;4.30;;;2.10;;
75016;SDS011;63577;39.766;2.720;2023-11-19T03:34:19;4.70;;;2.50;;
75016;SDS011;63577;39.766;2.720;2023-11-19T03:36:44;5.10;;;2.50;;
75016;SDS011;63577;39.766;2.720;2023-11-19T03:39:10;4.80;;;2.30;;
75016;SDS011;63577;39.766;2.720;2023-11-19T03:41:36;4.00;;;1.60;;
75016;SDS011;63577;39.766;2.720;2023-11-19T03:44:01;5.00;;;2.10;;
75016;SDS011;63577;39.766;2.720;2023-11-19T03:46:26;4.80;;;1.80;;
75016;SDS011;63577;39.766;2.720;2023-11-19T03:48:52;5.30;;;1.80;;
75016;SDS011;63577;39.766;2.720;2023-11-19T03:51:17;3.30;;;1.30;;
75016;SDS011;63577;39.766;2.720;2023-11-19T03:53:43;3.00;;;1.10;;
75016;SDS011;63577;39.766;2.720;2023-11-19T03:56:09;4.60;;;1.20;;
75016;SDS011;63577;39.766;2.720;2023-11-19T03:58:35;2.90;;;1.00;;
75016;SDS011;63577;39.766;2.720;2023-11-19T04:01:01;2.90;;;1.30;;
75016;SDS011;63577;39.766;2.720;2023-11-19T04:03:26;3.50;;;1.50;;
75016;SDS011;63577;39.766;2.720;2023-11-19T04:05:52;3.20;;;1.40;;
75016;SDS011;63577;39.766;2.720;2023-11-19T04:08:17;3.40;;;1.50;;
75016;SDS011;63577;39.766;2.720;2023-11-19T04:10:42;3.60;;;1.70;;
75016;SDS011;63577;39.766;2.720;2023-11-19T04:13:08;3.30;;;1.40;;
75016;SDS011;63577;39.766;2.720;2023-11-19T04:15:33;3.30;;;1.00;;
75016;SDS011;63577;39.766;2.720;2023-11-19T04:17:58;3.20;;;1.20;;
75016;SDS011;63577;39.766;2.720;2023-11-19T04:20:24;3.60;;;1.20;;
75016;SDS011;63577;39.766;2.720;2023-11-19T04:22:49;3.10;;;0.90;;
75016;SDS011;63577;39.766;2.720;2023-11-19T04:25:16;2.80;;;1.00;;
75016;SDS011;63577;39.766;2.720;2023-11-19T04:27:41;2.60;;;0.80;;
75016;SDS011;63577;39.766;2.720;2023-11-19T04:30:07;3.00;;;1.00;;
75016;SDS011;63577;39.766;2.720;2023-11-19T04:32:32;3.10;;;1.10;;
75016;SDS011;63577;39.766;2.720;2023-11-19T04:34:58;3.20;;;1.00;;
75016;SDS011;63577;39.766;2.720;2023-11-19T04:37:23;3.20;;;1.20;;
75016;SDS011;63577;39.766;2.720;2023-11-19T04:39:48;3.30;;;1.20;;
75016;SDS011;63577;39.766;2.720;2023-11-19T04:42:13;3.00;;;1.00;;
75016;SDS011;63577;39.766;2.720;2023-11-19T04:44:42;3.80;;;1.20;;
75016;SDS011;63577;39.766;2.720;2023-11-19T04:47:08;4.20;;;1.70;;
75016;SDS011;63577;39.766;2.720;2023-11-19T04:49:39;4.50;;;1.60;;
75016;SDS011;63577;39.766;2.720;2023-11-19T04:52:04;5.40;;;2.30;;
75016;SDS011;63577;39.766;2.720;2023-11-19T04:54:30;7.10;;;3.30;;
75016;SDS011;63577;39.766;2.720;2023-11-19T04:56:55;8.40;;;3.40;;
75016;SDS011;63577;39.766;2.720;2023-11-19T04:59:21;7.20;;;3.00;;
75016;SDS011;63577;39.766;2.720;2023-11-19T05:01:46;7.30;;;3.10;;
75016;SDS011;63577;39.766;2.720;2023-11-19T05:04:13;8.00;;;3.40;;
75016;SDS011;63577;39.766;2.720;2023-11-19T05:06:38;7.20;;;2.90;;
75016;SDS011;63577;39.766;2.720;2023-11-19T05:09:04;8.00;;;3.80;;
75016;SDS011;63577;39.766;2.720;2023-11-19T05:11:38;6.10;;;3.10;;
75016;SDS011;63577;39.766;2.720;2023-11-19T05:14:04;3.80;;;1.40;;
75016;SDS011;63577;39.766;2.720;2023-11-19T05:16:29;4.70;;;1.50;;
75016;SDS011;63577;39.766;2.720;2023-11-19T05:18:55;3.30;;;1.20;;
75016;SDS011;63577;39.766;2.720;2023-11-19T05:21:20;2.50;;;0.80;;
75016;SDS011;63577;39.766;2.720;2023-11-19T05:23:45;2.70;;;1.10;;
75016;SDS011;63577;39.766;2.720;2023-11-19T05:26:19;2.60;;;0.80;;
75016;SDS011;63577;39.766;2.720;2023-11-19T05:28:45;3.10;;;1.00;;
75016;SDS011;63577;39.766;2.720;2023-11-19T05:31:10;2.60;;;0.90;;
75016;SDS011;63577;39.766;2.720;2023-11-19T05:33:35;4.10;;;0.80;;
75016;SDS011;63577;39.766;2.720;2023-11-19T05:36:01;3.20;;;1.10;;
75016;SDS011;63577;39.766;2.720;2023-11-19T05:38:28;2.60;;;0.80;;
75016;SDS011;63577;39.766;2.720;2023-11-19T05:40:54;2.60;;;0.80;;
75016;SDS011;63577;39.766;2.720;2023-11-19T05:43:19;2.80;;;1.00;;
75016;SDS011;63577;39.766;2.720;2023-11-19T05:45:44;2.80;;;0.90;;
75016;SDS011;63577;39.766;2.720;2023-11-19T05:48:10;3.60;;;1.00;;
75016;SDS011;63577;39.766;2.720;2023-11-19T05:50:35;3.10;;;1.10;;
75016;SDS011;63577;39.766;2.720;2023-11-19T05:53:01;3.00;;;1.20;;
75016;SDS011;63577;39.766;2.720;2023-11-19T05:55:26;3.20;;;1.20;;
75016;SDS011;63577;39.766;2.720;2023-11-19T05:57:53;5.00;;;1.70;;
75016;SDS011;63577;39.766;2.720;2023-11-19T06:00:18;3.70;;;1.40;;
75016;SDS011;63577;39.766;2.720;2023-11-19T06:02:44;3.50;;;1.30;;
75016;SDS011;63577;39.766;2.720;2023-11-19T06:05:09;3.80;;;1.20;;
75016;SDS011;63577;39.766;2.720;2023-11-19T06:07:35;3.40;;;1.30;;
75016;SDS011;63577;39.766;2.720;2023-11-19T06:10:02;3.40;;;1.20;;
75016;SDS011;63577;39.766;2.720;2023-11-19T06:12:28;3.00;;;1.00;;
75016;SDS011;63577;39.766;2.720;2023-11-19T06:14:53;2.30;;;0.80;;
75016;SDS011;63577;39.766;2.720;2023-11-19T06:17:19;3.20;;;0.90;;
75016;SDS011;63577;39.766;2.720;2023-11-19T06:19:44;4.00;;;1.00;;
75016;SDS011;63577;39.766;2.720;2023-11-19T06:22:10;3.50;;;1.00;;
75016;SDS011;63577;39.766;2.720;2023-11-19T06:24:36;3.80;;;1.20;;
75016;SDS011;63577;39.766;2.720;2023-11-19T06:27:02;3.60;;;1.10;;
75016;SDS011;63577;39.766;2.720;2023-11-19T06:29:28;3.90;;;1.20;;
75016;SDS011;63577;39.766;2.720;2023-11-19T06:31:53;3.60;;;1.30;;
75016;SDS011;63577;39.766;2.720;2023-11-19T06:34:18;5.10;;;1.00;;
75016;SDS011;63577;39.766;2.720;2023-11-19T06:36:44;2.90;;;0.90;;
75016;SDS011;63577;39.766;2.720;2023-11-19T06:39:09;7.10;;;1.20;;
75016;SDS011;63577;39.766;2.720;2023-11-19T06:41:36;3.10;;;1.10;;
75016;SDS011;63577;39.766;2.720;2023-11-19T06:44:03;4.80;;;1.20;;
75016;SDS011;63577;39.766;2.720;2023-11-19T06:46:29;4.00;;;1.00;;
75016;SDS011;63577;39.766;2.720;2023-11-19T06:48:55;3.20;;;1.30;;
75016;SDS011;63577;39.766;2.720;2023-11-19T06:51:20;4.00;;;1.40;;
75016;SDS011;63577;39.766;2.720;2023-11-19T06:53:45;3.10;;;1.20;;
75016;SDS011;63577;39.766;2.720;2023-11-19T06:56:18;3.20;;;1.10;;
75016;SDS011;63577;39.766;2.720;2023-11-19T06:58:43;2.70;;;1.00;;
75016;SDS011;63577;39.766;2.720;2023-11-19T07:01:08;3.00;;;1.10;;
75016;SDS011;63577;39.766;2.720;2023-11-19T07:03:34;3.50;;;1.00;;
75016;SDS011;63577;39.766;2.720;2023-11-19T07:06:00;3.20;;;1.00;;
75016;SDS011;63577;39.766;2.720;2023-11-19T07:08:25;3.80;;;1.10;;
75016;SDS011;63577;39.766;2.720;2023-11-19T07:10:52;3.90;;;0.90;;
75016;SDS011;63577;39.766;2.720;2023-11-19T07:13:17;4.60;;;1.20;;
75016;SDS011;63577;39.766;2.720;2023-11-19T07:15:42;4.30;;;1.00;;
75016;SDS011;63577;39.766;2.720;2023-11-19T07:18:08;3.10;;;1.10;;
75016;SDS011;63577;39.766;2.720;2023-11-19T07:20:33;3.20;;;1.10;;
75016;SDS011;63577;39.766;2.720;2023-11-19T07:22:58;3.60;;;1.30;;
75016;SDS011;63577;39.766;2.720;2023-11-19T07:25:24;3.70;;;1.50;;
75016;SDS011;63577;39.766;2.720;2023-11-19T07:27:51;5.00;;;1.50;;
75016;SDS011;63577;39.766;2.720;2023-11-19T07:30:16;6.80;;;1.30;;
75016;SDS011;63577;39.766;2.720;2023-11-19T07:32:43;3.40;;;1.20;;
75016;SDS011;63577;39.766;2.720;2023-11-19T07:35:08;4.20;;;1.30;;
75016;SDS011;63577;39.766;2.720;2023-11-19T07:37:34;4.80;;;1.60;;
75016;SDS011;63577;39.766;2.720;2023-11-19T07:39:59;6.10;;;1.60;;
75016;SDS011;63577;39.766;2.720;2023-11-19T07:42:25;4.80;;;1.70;;
75016;SDS011;63577;39.766;2.720;2023-11-19T07:44:50;5.40;;;1.80;;
75016;SDS011;63577;39.766;2.720;2023-11-19T07:47:16;5.90;;;1.70;;
75016;SDS011;63577;39.766;2.720;2023-11-19T07:49:41;5.10;;;1.70;;
75016;SDS011;63577;39.766;2.720;2023-11-19T07:52:08;4.10;;;1.60;;
75016;SDS011;63577;39.766;2.720;2023-11-19T07:54:34;5.50;;;1.30;;
75016;SDS011;63577;39.766;2.720;2023-11-19T07:56:59;4.40;;;1.40;;
75016;SDS011;63577;39.766;2.720;2023-11-19T07:59:24;4.00;;;1.50;;
75016;SDS011;63577;39.766;2.720;2023-11-19T08:01:50;6.20;;;1.40;;
75016;SDS011;63577;39.766;2.720;2023-11-19T08:04:15;4.50;;;1.60;;
75016;SDS011;63577;39.766;2.720;2023-11-19T08:06:40;4.60;;;1.70;;
75016;SDS011;63577;39.766;2.720;2023-11-19T08:09:06;6.10;;;1.80;;
75016;SDS011;63577;39.766;2.720;2023-11-19T08:11:32;4.60;;;1.70;;
75016;SDS011;63577;39.766;2.720;2023-11-19T08:13:57;3.80;;;1.30;;
75016;SDS011;63577;39.766;2.720;2023-11-19T08:16:22;3.80;;;1.60;;
75016;SDS011;63577;39.766;2.720;2023-11-19T08:18:48;5.70;;;1.50;;
75016;SDS011;63577;39.766;2.720;2023-11-19T08:21:13;3.80;;;1.60;;
75016;SDS011;63577;39.766;2.720;2023-11-19T08:23:38;4.70;;;1.60;;
75016;SDS011;63577;39.766;2.720;2023-11-19T08:26:04;5.10;;;1.40;;
75016;SDS011;63577;39.766;2.720;2023-11-19T08:28:30;5.20;;;1.20;;
75016;SDS011;63577;39.766;2.720;2023-11-19T08:30:56;4.10;;;1.40;;
75016;SDS011;63577;39.766;2.720;2023-11-19T08:33:21;4.50;;;1.60;;
75016;SDS011;63577;39.766;2.720;2023-11-19T08:35:47;4.90;;;2.00;;
75016;SDS011;63577;39.766;2.720;2023-11-19T08:38:13;6.40;;;3.00;;
75016;SDS011;63577;39.766;2.720;2023-11-19T08:40:38;7.10;;;3.50;;
75016;SDS011;63577;39.766;2.720;2023-11-19T08:43:04;6.90;;;3.80;;
75016;SDS011;63577;39.766;2.720;2023-11-19T08:45:29;8.30;;;4.20;;
75016;SDS011;63577;39.766;2.720;2023-11-19T08:47:56;20.50;;;11.30;;
75016;SDS011;63577;39.766;2.720;2023-11-19T08:50:22;26.50;;;13.80;;
75016;SDS011;63577;39.766;2.720;2023-11-19T08:52:47;46.00;;;25.00;;
75016;SDS011;63577;39.766;2.720;2023-11-19T08:55:13;72.00;;;40.90;;
75016;SDS011;63577;39.766;2.720;2023-11-19T08:57:39;89.50;;;49.50;;
75016;SDS011;63577;39.766;2.720;2023-11-19T09:00:04;90.80;;;50.50;;
75016;SDS011;63577;39.766;2.720;2023-11-19T09:02:34;81.00;;;46.50;;
75016;SDS011;63577;39.766;2.720;2023-11-19T09:04:59;48.50;;;28.60;;
75016;SDS011;63577;39.766;2.720;2023-11-19T09:07:24;36.60;;;22.30;;
75016;SDS011;63577;39.766;2.720;2023-11-19T09:09:50;21.30;;;13.00;;
75016;SDS011;63577;39.766;2.720;2023-11-19T09:12:15;16.60;;;8.50;;
75016;SDS011;63577;39.766;2.720;2023-11-19T09:14:40;12.10;;;5.90;;
75016;SDS011;63577;39.766;2.720;2023-11-19T09:17:07;11.10;;;6.10;;
75016;SDS011;63577;39.766;2.720;2023-11-19T09:19:32;10.50;;;6.30;;
75016;SDS011;63577;39.766;2.720;2023-11-19T09:21:58;10.50;;;5.60;;
75016;SDS011;63577;39.766;2.720;2023-11-19T09:24:23;10.90;;;6.50;;
75016;SDS011;63577;39.766;2.720;2023-11-19T09:26:49;9.30;;;4.90;;
75016;SDS011;63577;39.766;2.720;2023-11-19T09:29:14;6.40;;;3.20;;
75016;SDS011;63577;39.766;2.720;2023-11-19T09:31:39;6.30;;;3.30;;
75016;SDS011;63577;39.766;2.720;2023-11-19T09:34:05;6.60;;;3.60;;
75016;SDS011;63577;39.766;2.720;2023-11-19T09:36:30;9.10;;;5.60;;
75016;SDS011;63577;39.766;2.720;2023-11-19T09:38:56;14.50;;;8.90;;
75016;SDS011;63577;39.766;2.720;2023-11-19T09:41:22;16.60;;;8.90;;
75016;SDS011;63577;39.766;2.720;2023-11-19T09:43:48;15.00;;;9.80;;
75016;SDS011;63577;39.766;2.720;2023-11-19T09:46:14;14.40;;;10.20;;
75016;SDS011;63577;39.766;2.720;2023-11-19T09:48:40;17.80;;;11.50;;
75016;SDS011;63577;39.766;2.720;2023-11-19T09:51:10;15.20;;;10.90;;
75016;SDS011;63577;39.766;2.720;2023-11-19T09:53:36;14.40;;;9.90;;
75016;SDS011;63577;39.766;2.720;2023-11-19T09:56:02;7.20;;;4.90;;
75016;SDS011;63577;39.766;2.720;2023-11-19T09:58:31;6.60;;;3.50;;
75016;SDS011;63577;39.766;2.720;2023-11-19T10:00:56;4.40;;;2.20;;
75016;SDS011;63577;39.766;2.720;2023-11-19T10:03:24;5.20;;;2.20;;
75016;SDS011;63577;39.766;2.720;2023-11-19T10:05:50;4.40;;;2.20;;
75016;SDS011;63577;39.766;2.720;2023-11-19T10:08:15;3.80;;;2.30;;
75016;SDS011;63577;39.766;2.720;2023-11-19T10:10:42;3.60;;;2.00;;
75016;SDS011;63577;39.766;2.720;2023-11-19T10:13:07;4.20;;;2.10;;
75016;SDS011;63577;39.766;2.720;2023-11-19T10:15:36;4.60;;;2.40;;
75016;SDS011;63577;39.766;2.720;2023-11-19T10:18:02;6.20;;;4.20;;
75016;SDS011;63577;39.766;2.720;2023-11-19T10:20:27;4.10;;;2.00;;
75016;SDS011;63577;39.766;2.720;2023-11-19T10:22:53;4.00;;;2.60;;
75016;SDS011;63577;39.766;2.720;2023-11-19T10:25:26;4.80;;;2.60;;
75016;SDS011;63577;39.766;2.720;2023-11-19T10:27:52;4.80;;;2.50;;
75016;SDS011;63577;39.766;2.720;2023-11-19T10:30:22;4.00;;;2.60;;
75016;SDS011;63577;39.766;2.720;2023-11-19T10:33:04;4.40;;;3.20;;
75016;SDS011;63577;39.766;2.720;2023-11-19T10:35:33;4.40;;;2.90;;
75016;SDS011;63577;39.766;2.720;2023-11-19T10:37:59;4.30;;;2.00;;
75016;SDS011;63577;39.766;2.720;2023-11-19T10:40:37;3.70;;;2.00;;
75016;SDS011;63577;39.766;2.720;2023-11-19T10:43:03;4.00;;;1.80;;
75016;SDS011;63577;39.766;2.720;2023-11-19T10:45:28;3.20;;;1.50;;
75016;SDS011;63577;39.766;2.720;2023-11-19T10:47:54;3.80;;;1.70;;
75016;SDS011;63577;39.766;2.720;2023-11-19T10:50:20;4.30;;;1.50;;
75016;SDS011;63577;39.766;2.720;2023-11-19T10:52:46;4.60;;;1.50;;
75016;SDS011;63577;39.766;2.720;2023-11-19T10:55:12;3.50;;;1.60;;
75016;SDS011;63577;39.766;2.720;2023-11-19T10:57:40;4.70;;;1.50;;
75016;SDS011;63577;39.766;2.720;2023-11-19T11:00:09;3.60;;;1.70;;
75016;SDS011;63577;39.766;2.720;2023-11-19T11:02:39;4.50;;;1.70;;
75016;SDS011;63577;39.766;2.720;2023-11-19T11:05:06;3.40;;;1.40;;
75016;SDS011;63577;39.766;2.720;2023-11-19T11:07:33;3.80;;;1.70;;
75016;SDS011;63577;39.766;2.720;2023-11-19T11:09:59;3.70;;;1.60;;
75016;SDS011;63577;39.766;2.720;2023-11-19T11:12:25;4.10;;;1.90;;
75016;SDS011;63577;39.766;2.720;2023-11-19T11:14:50;3.90;;;2.00;;
75016;SDS011;63577;39.766;2.720;2023-11-19T11:17:17;5.00;;;2.10;;
75016;SDS011;63577;39.766;2.720;2023-11-19T11:19:42;4.70;;;2.10;;
75016;SDS011;63577;39.766;2.720;2023-11-19T11:22:08;5.80;;;3.00;;
75016;SDS011;63577;39.766;2.720;2023-11-19T11:39:35;6.00;;;3.10;;
75016;SDS011;63577;39.766;2.720;2023-11-19T11:47:59;7.30;;;3.10;;
75016;SDS011;63577;39.766;2.720;2023-11-19T11:50:18;5.80;;;3.40;;
75016;SDS011;63577;39.766;2.720;2023-11-19T11:57:49;4.00;;;1.90;;
75016;SDS011;63577;39.766;2.720;2023-11-19T12:00:21;4.10;;;2.00;;
75016;SDS011;63577;39.766;2.720;2023-11-19T12:02:46;5.00;;;2.30;;
75016;SDS011;63577;39.766;2.720;2023-11-19T12:05:14;6.80;;;3.40;;
75016;SDS011;63577;39.766;2.720;2023-11-19T12:07:39;6.70;;;3.20;;
75016;SDS011;63577;39.766;2.720;2023-11-19T12:12:32;6.30;;;3.50;;
75016;SDS011;63577;39.766;2.720;2023-11-19T12:20:05;5.30;;;2.20;;
75016;SDS011;63577;39.766;2.720;2023-11-19T12:22:43;4.90;;;1.90;;
75016;SDS011;63577;39.766;2.720;2023-11-19T12:25:10;6.70;;;3.00;;
75016;SDS011;63577;39.766;2.720;2023-11-19T12:27:37;6.70;;;3.50;;
75016;SDS011;63577;39.766;2.720;2023-11-19T12:30:04;9.90;;;5.60;;
75016;SDS011;63577;39.766;2.720;2023-11-19T12:32:40;10.60;;;5.70;;
75016;SDS011;63577;39.766;2.720;2023-11-19T12:35:06;17.90;;;10.50;;
75016;SDS011;63577;39.766;2.720;2023-11-19T12:37:32;23.60;;;13.30;;
75016;SDS011;63577;39.766;2.720;2023-11-19T12:39:57;8.30;;;3.50;;
75016;SDS011;63577;39.766;2.720;2023-11-19T12:42:36;7.70;;;3.60;;
75016;SDS011;63577;39.766;2.720;2023-11-19T12:45:02;11.30;;;5.90;;
75016;SDS011;63577;39.766;2.720;2023-11-19T12:47:27;23.50;;;13.70;;
75016;SDS011;63577;39.766;2.720;2023-11-19T12:49:56;11.60;;;6.00;;
75016;SDS011;63577;39.766;2.720;2023-11-19T12:52:22;14.10;;;8.40;;
75016;SDS011;63577;39.766;2.720;2023-11-19T12:54:48;12.10;;;8.10;;
75016;SDS011;63577;39.766;2.720;2023-11-19T12:57:14;10.20;;;5.20;;
75016;SDS011;63577;39.766;2.720;2023-11-19T12:59:40;5.30;;;2.50;;
75016;SDS011;63577;39.766;2.720;2023-11-19T13:02:05;10.80;;;4.60;;
75016;SDS011;63577;39.766;2.720;2023-11-19T13:04:32;13.20;;;5.90;;
75016;SDS011;63577;39.766;2.720;2023-11-19T13:06:57;11.90;;;5.70;;
75016;SDS011;63577;39.766;2.720;2023-11-19T13:09:23;11.70;;;5.30;;
75016;SDS011;63577;39.766;2.720;2023-11-19T13:11:52;17.60;;;9.40;;
75016;SDS011;63577;39.766;2.720;2023-11-19T13:14:18;8.30;;;3.90;;
75016;SDS011;63577;39.766;2.720;2023-11-19T13:16:44;12.90;;;5.20;;
75016;SDS011;63577;39.766;2.720;2023-11-19T13:19:11;7.10;;;3.40;;
75016;SDS011;63577;39.766;2.720;2023-11-19T13:21:37;5.40;;;2.30;;
75016;SDS011;63577;39.766;2.720;2023-11-19T13:24:05;7.30;;;2.20;;
75016;SDS011;63577;39.766;2.720;2023-11-19T13:26:31;5.70;;;2.20;;
75016;SDS011;63577;39.766;2.720;2023-11-19T13:28:56;10.00;;;2.90;;
75016;SDS011;63577;39.766;2.720;2023-11-19T13:31:22;10.30;;;4.90;;
75016;SDS011;63577;39.766;2.720;2023-11-19T13:33:47;7.50;;;4.10;;
75016;SDS011;63577;39.766;2.720;2023-11-19T13:36:13;14.20;;;7.30;;
75016;SDS011;63577;39.766;2.720;2023-11-19T13:38:38;14.40;;;7.20;;
75016;SDS011;63577;39.766;2.720;2023-11-19T13:41:06;12.30;;;5.30;;
75016;SDS011;63577;39.766;2.720;2023-11-19T13:43:31;11.40;;;5.10;;
75016;SDS011;63577;39.766;2.720;2023-11-19T13:45:57;6.40;;;2.20;;
75016;SDS011;63577;39.766;2.720;2023-11-19T13:48:25;8.70;;;2.60;;
75016;SDS011;63577;39.766;2.720;2023-11-19T13:50:52;6.10;;;2.20;;
75016;SDS011;63577;39.766;2.720;2023-11-19T13:53:18;6.60;;;1.50;;
75016;SDS011;63577;39.766;2.720;2023-11-19T13:55:43;11.80;;;5.80;;
75016;SDS011;63577;39.766;2.720;2023-11-19T13:58:09;15.30;;;6.70;;
75016;SDS011;63577;39.766;2.720;2023-11-19T14:00:35;8.50;;;2.90;;
75016;SDS011;63577;39.766;2.720;2023-11-19T14:03:00;6.00;;;2.80;;
75016;SDS011;63577;39.766;2.720;2023-11-19T14:05:26;5.70;;;1.40;;
75016;SDS011;63577;39.766;2.720;2023-11-19T14:07:51;5.70;;;2.50;;
75016;SDS011;63577;39.766;2.720;2023-11-19T14:10:17;12.80;;;5.70;;
75016;SDS011;63577;39.766;2.720;2023-11-19T14:12:43;9.00;;;3.80;;
75016;SDS011;63577;39.766;2.720;2023-11-19T14:15:09;17.30;;;5.90;;
75016;SDS011;63577;39.766;2.720;2023-11-19T14:17:35;63.30;;;18.60;;
75016;SDS011;63577;39.766;2.720;2023-11-19T14:20:00;166.70;;;50.40;;
75016;SDS011;63577;39.766;2.720;2023-11-19T14:22:26;72.70;;;24.40;;
75016;SDS011;63577;39.766;2.720;2023-11-19T14:24:51;31.70;;;11.10;;
75016;SDS011;63577;39.766;2.720;2023-11-19T14:27:16;105.90;;;37.70;;
75016;SDS011;63577;39.766;2.720;2023-11-19T14:29:43;60.10;;;22.00;;
75016;SDS011;63577;39.766;2.720;2023-11-19T14:32:10;43.40;;;17.20;;
75016;SDS011;63577;39.766;2.720;2023-11-19T14:34:35;94.70;;;38.80;;
75016;SDS011;63577;39.766;2.720;2023-11-19T14:37:01;19.80;;;8.20;;
75016;SDS011;63577;39.766;2.720;2023-11-19T14:39:26;18.30;;;7.40;;
75016;SDS011;63577;39.766;2.720;2023-11-19T14:41:51;16.20;;;7.30;;
75016;SDS011;63577;39.766;2.720;2023-11-19T14:44:18;5.20;;;2.20;;
75016;SDS011;63577;39.766;2.720;2023-11-19T14:46:45;5.60;;;1.90;;
75016;SDS011;63577;39.766;2.720;2023-11-19T14:49:10;5.80;;;1.90;;
75016;SDS011;63577;39.766;2.720;2023-11-19T14:51:39;5.20;;;2.10;;
75016;SDS011;63577;39.766;2.720;2023-11-19T14:54:04;5.20;;;2.10;;
75016;SDS011;63577;39.766;2.720;2023-11-19T14:56:30;5.20;;;2.10;;
75016;SDS011;63577;39.766;2.720;2023-11-19T14:58:55;4.70;;;1.90;;
75016;SDS011;63577;39.766;2.720;2023-11-19T15:01:21;7.70;;;2.40;;
75016;SDS011;63577;39.766;2.720;2023-11-19T15:03:46;8.80;;;2.30;;
75016;SDS011;63577;39.766;2.720;2023-11-19T15:06:11;5.70;;;2.10;;
75016;SDS011;63577;39.766;2.720;2023-11-19T15:08:37;4.80;;;2.20;;
75016;SDS011;63577;39.766;2.720;2023-11-19T15:11:02;5.80;;;2.30;;
75016;SDS011;63577;39.766;2.720;2023-11-19T15:13:30;9.20;;;2.30;;
75016;SDS011;63577;39.766;2.720;2023-11-19T15:15:55;6.80;;;2.80;;
75016;SDS011;63577;39.766;2.720;2023-11-19T15:18:21;5.50;;;2.10;;